createdAt,value
2022-11-10T00:01:34.875Z,76.23
2022-11-10T00:06:56.977Z,76.30
2022-11-10T00:12:19.996Z,76.21
2022-11-10T00:17:42.033Z,76.04
2022-11-10T00:23:04.429Z,76.30
2022-11-10T00:28:26.895Z,76.10
2022-11-10T00:33:48.513Z,76.23
2022-11-10T00:39:10.896Z,76.02
2022-11-10T00:44:32.684Z,75.93
2022-11-10T00:49:54.646Z,76.07
2022-11-10T00:55:16.870Z,75.76
2022-11-10T01:00:38.822Z,75.95
2022-11-10T01:06:09.471Z,75.55
2022-11-10T01:11:31.421Z,75.60
2022-11-10T01:16:53.302Z,75.85
2022-11-10T01:22:15.569Z,75.76
2022-11-10T01:27:37.802Z,75.92
2022-11-10T01:32:59.570Z,76.03
2022-11-10T01:38:22.135Z,75.84
2022-11-10T01:43:44.174Z,76.38
2022-11-10T01:49:07.071Z,76.34
2022-11-10T01:54:46.663Z,76.42
2022-11-10T02:00:10.823Z,76.49
2022-11-10T02:05:33.481Z,76.35
2022-11-10T02:10:55.361Z,76.19
2022-11-10T02:16:18.506Z,76.38
2022-11-10T02:21:40.534Z,76.46
2022-11-10T02:27:03.098Z,76.71
2022-11-10T02:32:24.710Z,76.28
2022-11-10T02:37:46.523Z,76.55
2022-11-10T02:43:15.510Z,76.66
2022-11-10T02:48:39.120Z,76.90
2022-11-10T02:54:01.374Z,76.50
2022-11-10T02:59:23.582Z,76.39
2022-11-10T03:04:45.835Z,76.18
2022-11-10T03:10:08.286Z,76.03
2022-11-10T03:15:30.253Z,75.90
2022-11-10T03:20:51.914Z,75.90
2022-11-10T03:26:13.913Z,76.11
2022-11-10T03:31:35.742Z,75.71
2022-11-10T03:36:57.510Z,75.85
2022-11-10T03:42:19.739Z,75.56
2022-11-10T03:47:44.831Z,75.82
2022-11-10T03:53:06.624Z,75.61
2022-11-10T03:58:28.361Z,75.42
2022-11-10T04:03:57.689Z,75.58
2022-11-10T04:09:19.344Z,75.33
2022-11-10T04:14:41.277Z,75.14
2022-11-10T04:20:03.862Z,75.46
2022-11-10T04:25:26.092Z,75.05
2022-11-10T04:30:49.305Z,74.91
2022-11-10T04:36:13.383Z,74.88
2022-11-10T04:41:35.634Z,74.78
2022-11-10T04:46:57.680Z,74.53
2022-11-10T04:52:19.602Z,74.43
2022-11-10T04:57:43.238Z,74.12
2022-11-10T05:03:07.964Z,73.53
2022-11-10T05:08:29.894Z,73.27
2022-11-10T05:13:52.048Z,72.51
2022-11-10T05:19:13.793Z,71.89
2022-11-10T05:24:35.573Z,71.24
2022-11-10T05:29:57.623Z,70.87
2022-11-10T05:35:19.285Z,71.46
2022-11-10T05:40:40.953Z,72.27
2022-11-10T05:46:03.006Z,73.42
2022-11-10T05:51:25.109Z,74.75
2022-11-10T05:56:47.586Z,75.64
2022-11-10T06:02:09.541Z,76.08
2022-11-10T06:07:31.440Z,77.06
2022-11-10T06:12:54.683Z,77.81
2022-11-10T06:18:16.329Z,78.12
2022-11-10T06:23:37.977Z,78.27
2022-11-10T06:29:00.210Z,78.31
2022-11-10T06:34:23.119Z,78.67
2022-11-10T06:39:44.877Z,78.69
2022-11-10T06:45:07.971Z,79.15
2022-11-10T06:50:30.988Z,79.14
2022-11-10T06:55:53.143Z,79.42
2022-11-10T07:01:17.649Z,79.85
2022-11-10T07:06:43.692Z,79.86
2022-11-10T07:12:06.252Z,80.22
2022-11-10T07:17:28.349Z,79.93
2022-11-10T07:22:50.337Z,79.62
2022-11-10T07:28:12.987Z,79.70
2022-11-10T07:33:35.440Z,79.88
2022-11-10T07:38:57.304Z,79.95
2022-11-10T07:44:22.463Z,80.27
2022-11-10T07:49:46.227Z,80.54
2022-11-10T07:55:08.286Z,81.36
2022-11-10T08:00:30.295Z,81.15
2022-11-10T08:05:52.417Z,81.24
2022-11-10T08:11:14.770Z,81.56
2022-11-10T08:16:36.383Z,81.13
2022-11-10T08:21:58.369Z,81.09
2022-11-10T08:27:20.383Z,80.63
2022-11-10T08:32:43.169Z,79.75
2022-11-10T08:38:11.790Z,79.52
2022-11-10T08:43:33.973Z,79.19
2022-11-10T08:48:55.920Z,78.65
2022-11-10T08:54:17.714Z,78.01
2022-11-10T08:59:39.453Z,77.40
2022-11-10T09:05:01.520Z,76.46
2022-11-10T09:10:23.966Z,75.65
2022-11-10T09:15:45.929Z,75.21
2022-11-10T09:21:08.426Z,74.15
2022-11-10T09:26:31.643Z,73.66
2022-11-10T09:31:53.719Z,72.73
2022-11-10T09:37:15.674Z,71.89
2022-11-10T09:42:40.824Z,71.05
2022-11-10T09:48:13.067Z,70.34
2022-11-10T09:53:41.814Z,69.33
2022-11-10T09:59:14.419Z,68.47
2022-11-10T10:05:07.796Z,68.01
2022-11-10T10:10:37.558Z,67.91
2022-11-10T10:16:05.218Z,67.74
2022-11-10T10:21:48.746Z,67.82
2022-11-10T10:27:19.458Z,67.00
2022-11-10T10:32:41.256Z,66.57
2022-11-10T10:38:05.756Z,66.07
2022-11-10T10:43:27.767Z,65.74
2022-11-10T10:49:32.165Z,65.66
2022-11-10T10:55:01.154Z,65.34
2022-11-10T11:00:23.887Z,64.44
2022-11-10T11:05:59.807Z,65.55
2022-11-10T11:11:26.781Z,64.50
2022-11-10T11:17:13.402Z,64.44
2022-11-10T11:22:35.485Z,63.94
2022-11-10T11:28:22.340Z,63.93
2022-11-10T11:34:13.583Z,64.01
2022-11-10T11:40:01.356Z,64.14
2022-11-10T11:45:58.757Z,63.87
2022-11-10T11:51:31.140Z,63.69
2022-11-10T11:56:56.950Z,63.59
2022-11-10T12:02:52.492Z,63.45
2022-11-10T12:08:41.571Z,63.60
2022-11-10T12:14:27.570Z,63.48
2022-11-10T12:20:14.853Z,63.00
2022-11-10T12:25:58.608Z,62.86
2022-11-10T12:31:25.164Z,62.73
2022-11-10T12:36:48.994Z,62.85
2022-11-10T12:42:21.364Z,62.68
2022-11-10T12:47:45.538Z,62.49
2022-11-10T12:53:20.372Z,62.71
2022-11-10T12:58:42.758Z,62.43
2022-11-10T13:04:05.633Z,63.04
2022-11-10T13:09:34.077Z,62.94
2022-11-10T13:14:55.900Z,62.84
2022-11-10T13:20:50.991Z,62.74
2022-11-10T13:26:45.834Z,62.98
2022-11-10T13:32:13.630Z,62.88
2022-11-10T13:37:35.232Z,63.04
2022-11-10T13:43:00.051Z,63.54
2022-11-10T13:48:36.853Z,64.22
2022-11-10T13:54:45.100Z,64.31
2022-11-10T14:00:37.272Z,64.74
2022-11-10T14:06:05.192Z,65.00
2022-11-10T14:11:37.167Z,65.31
2022-11-10T14:16:59.818Z,65.53
2022-11-10T14:22:33.260Z,65.47
2022-11-10T14:27:58.401Z,65.79
2022-11-10T14:33:23.103Z,66.04
2022-11-10T14:38:45.631Z,66.24
2022-11-10T14:44:13.653Z,66.39
2022-11-10T14:49:35.715Z,66.61
2022-11-10T14:54:57.885Z,66.85
2022-11-10T15:00:24.022Z,67.21
2022-11-10T15:05:47.865Z,67.32
2022-11-10T15:11:37.662Z,67.30
2022-11-10T15:17:01.270Z,67.64
2022-11-10T15:22:30.978Z,67.73
2022-11-10T15:28:02.320Z,68.03
2022-11-10T15:33:27.801Z,68.03
2022-11-10T15:39:12.081Z,68.18
2022-11-10T15:44:33.846Z,68.25
2022-11-10T15:49:55.534Z,68.33
2022-11-10T15:55:24.564Z,68.53
2022-11-10T16:00:47.313Z,68.43
2022-11-10T16:06:18.279Z,68.57
2022-11-10T16:11:43.553Z,68.54
2022-11-10T16:17:06.270Z,68.14
2022-11-10T16:22:31.836Z,68.14
2022-11-10T16:27:53.793Z,68.05
2022-11-10T16:33:17.481Z,67.90
2022-11-10T16:38:39.894Z,67.74
2022-11-10T16:44:01.822Z,67.95
2022-11-10T16:49:26.965Z,67.77
2022-11-10T16:54:48.752Z,67.84
2022-11-10T17:00:11.139Z,67.96
2022-11-10T17:05:35.050Z,68.10
2022-11-10T17:10:57.494Z,68.22
2022-11-10T17:16:28.865Z,68.35
2022-11-10T17:21:53.300Z,68.46
2022-11-10T17:27:15.644Z,68.36
2022-11-10T17:33:03.454Z,68.59
2022-11-10T17:38:30.852Z,68.49
2022-11-10T17:43:53.042Z,68.95
2022-11-10T17:49:14.740Z,68.99
2022-11-10T17:54:36.604Z,68.79
2022-11-10T17:59:58.876Z,69.09
2022-11-10T18:05:21.001Z,68.78
2022-11-10T18:10:49.257Z,69.19
2022-11-10T18:16:13.441Z,69.16
2022-11-10T18:21:34.964Z,69.08
2022-11-10T18:26:57.664Z,69.20
2022-11-10T18:32:19.799Z,69.13
2022-11-10T18:37:43.740Z,69.23
2022-11-10T18:43:07.721Z,69.05
2022-11-10T18:48:34.719Z,68.85
2022-11-10T18:53:59.027Z,69.01
2022-11-10T18:59:20.777Z,68.60
2022-11-10T19:04:42.838Z,68.84
2022-11-10T19:10:06.372Z,68.64
2022-11-10T19:15:28.353Z,68.82
2022-11-10T19:20:50.365Z,68.39
2022-11-10T19:26:22.573Z,68.34
2022-11-10T19:31:45.576Z,68.17
2022-11-10T19:37:07.182Z,67.80
2022-11-10T19:42:29.083Z,67.93
2022-11-10T19:47:51.180Z,67.75
2022-11-10T19:53:13.128Z,67.51
2022-11-10T19:58:39.204Z,67.70
2022-11-10T20:04:01.385Z,67.50
2022-11-10T20:09:23.458Z,67.28
2022-11-10T20:14:45.297Z,67.60
2022-11-10T20:20:07.659Z,67.34
2022-11-10T20:25:31.973Z,67.11
2022-11-10T20:30:57.105Z,67.14
2022-11-10T20:36:30.821Z,67.17
2022-11-10T20:41:52.829Z,67.09
2022-11-10T20:47:15.415Z,67.25
2022-11-10T20:52:37.500Z,67.32
2022-11-10T20:57:58.936Z,67.10
2022-11-10T21:03:22.909Z,67.24
2022-11-10T21:08:44.818Z,67.62
2022-11-10T21:14:06.539Z,67.64
2022-11-10T21:19:32.845Z,67.54
2022-11-10T21:25:00.575Z,67.75
2022-11-10T21:30:22.557Z,67.73
2022-11-10T21:35:44.925Z,67.99
2022-11-10T21:41:06.202Z,67.81
2022-11-10T21:46:28.737Z,67.98
2022-11-10T21:51:50.569Z,67.90
2022-11-10T21:57:13.113Z,67.86
2022-11-10T22:02:35.483Z,68.09
2022-11-10T22:07:57.399Z,67.83
2022-11-10T22:13:20.639Z,67.91
2022-11-10T22:18:43.450Z,68.00
2022-11-10T22:24:05.403Z,68.12
2022-11-10T22:29:31.684Z,67.96
2022-11-10T22:34:54.459Z,67.89
2022-11-10T22:40:16.440Z,68.12
2022-11-10T22:45:37.906Z,68.00
2022-11-10T22:51:02.531Z,67.67
2022-11-10T22:56:25.241Z,67.75
2022-11-10T23:01:47.484Z,67.53
2022-11-10T23:07:09.949Z,67.67
2022-11-10T23:12:33.989Z,67.61
2022-11-10T23:17:56.290Z,67.64
2022-11-10T23:23:18.567Z,67.15
2022-11-10T23:28:41.053Z,67.10
2022-11-10T23:34:03.337Z,66.85
2022-11-10T23:39:25.481Z,66.69
2022-11-10T23:44:47.149Z,66.31
2022-11-10T23:50:10.114Z,65.73
2022-11-10T23:55:39.899Z,65.31
